Time;durP1;ratioP1;P1;durP2;ratioP2;P2;SDS_P1;SDS_P2;PMS_P1;PMS_P2;Temp;Humidity;BMP_temperature;BMP_pressure;BME280_temperature;BME280_humidity;BME280_pressure;Samples;Min_cycle;Max_cycle;Signal;HPM_P1;HPM_P2
2022/11/04 00:01:13;;;;;;;;;;;;;;;;;;5072422;28;19905;-53
2022/11/04 00:03:39;;;;;;;;;;;;;;;;;;5074334;28;19916;-55
2022/11/04 00:06:05;;;;;;;;;;;;;;;;;;5070686;28;19947;-55
2022/11/04 00:08:31;;;;;;;;;;;;;;;;;;5071322;28;19904;-55
2022/11/04 00:13:41;;;;;;;;;;;;;;;;;;5071261;28;19911;-53
2022/11/04 00:18:52;;;;;;;;;;;;;;;;;;5070874;28;19931;-53
2022/11/04 00:29:32;;;;;;;;;;;;;;;;;;5070913;28;19911;-52
2022/11/04 00:34:42;;;;;;;;;;;;;;;;;;5070844;28;19950;-55
2022/11/04 00:37:08;;;;;;;;;;;;;;;;;;5086995;28;19916;-55
2022/11/04 00:39:34;;;;;;;;;;;;;;;;;;5090649;28;20276;-55
2022/11/04 00:41:59;;;;;;;;;;;;;;;;;;5091126;28;19904;-54
2022/11/04 00:44:25;;;;;;;;;;;;;;;;;;5090907;28;19900;-54
2022/11/04 00:46:51;;;;;;;;;;;;;;;;;;5090975;28;19904;-56
2022/11/04 00:49:17;;;;;;;;;;;;;;;;;;5091416;28;19943;-52
2022/11/04 00:51:43;;;;;;;;;;;;;;;;;;5074829;28;19909;-54
2022/11/04 00:54:09;;;;;;;;;;;;;;;;;;5071341;28;19912;-53
2022/11/04 05:39:08;;;;;;;;;;;;;;;;;;5091837;28;20001;-52
2022/11/04 05:41:34;;;;;;;;;;;;;;;;;;5082470;28;19978;-53
2022/11/04 05:44:00;;;;;;;;;;;;;;;;;;5071653;28;20592;-54
2022/11/04 05:46:26;;;;;;;;;;;;;;;;;;5078837;28;20894;-55
2022/11/04 05:48:52;;;;;;;;;;;;;;;;;;5089890;28;19986;-55
2022/11/04 05:51:18;;;;;;;;;;;;;;;;;;5084447;28;19916;-54
2022/11/04 05:53:44;;;;;;;;;;;;;;;;;;5082949;28;19908;-54
2022/11/04 05:56:10;;;;;;;;;;;;;;;;;;5069404;28;19935;-52
2022/11/04 05:58:36;;;;;;;;;;;;;;;;;;5073205;28;19912;-53
2022/11/04 06:01:01;;;;;;;;;;;;;;;;;;5089763;28;19964;-54
2022/11/04 06:03:27;;;;;;;;;;;;;;;;;;5085740;28;20025;-53
2022/11/04 06:05:53;;;;;;;;;;;;;;;;;;5076778;28;19912;-55
2022/11/04 06:08:19;;;;;;;;;;;;;;;;;;5070157;28;19935;-54
2022/11/04 06:10:45;;;;;;;;;;;;;;;;;;5080338;28;19915;-54
2022/11/04 06:13:11;;;;;;;;;;;;;;;;;;5078490;28;19916;-53
2022/11/04 06:15:38;;;;;;;;;;;;;;;;;;5082579;28;20000;-55
2022/11/04 06:18:04;;;;;;;;;;;;;;;;;;5090072;28;19935;-55
2022/11/04 06:20:29;;;;;;;;;;;;;;;;;;5090509;28;20268;-54
2022/11/04 06:22:55;;;;;;;;;;;;;;;;;;5078796;28;19908;-54
2022/11/04 06:25:21;;;;;;;;;;;;;;;;;;5070929;28;19930;-54
2022/11/04 06:27:47;;;;;;;;;;;;;;;;;;5069746;28;19932;-53
2022/11/04 06:30:13;;;;;;;;;;;;;;;;;;5069716;28;19908;-54
2022/11/04 06:32:39;;;;;;;;;;;;;;;;;;5079423;28;19916;-51
2022/11/04 06:35:07;;;;;;;;;;;;;;;;;;5080603;28;19926;-54
2022/11/04 06:37:33;;;;;;;;;;;;;;;;;;5073799;28;19912;-54
2022/11/04 06:39:59;;;;;;;;;;;;;;;;;;5089452;28;19912;-52
2022/11/04 06:42:27;;;;;;;;;;;;;;;;;;5069478;28;19910;-54
2022/11/04 06:44:53;;;;;;;;;;;;;;;;;;5089793;28;19927;-54
2022/11/04 06:47:19;;;;;;;;;;;;;;;;;;5088863;28;19912;-52
2022/11/04 06:49:45;;;;;;;;;;;;;;;;;;5088197;28;19904;-54
2022/11/04 06:52:11;;;;;;;;;;;;;;;;;;5089911;28;19904;-54
2022/11/04 06:54:37;;;;;;;;;;;;;;;;;;5089600;28;19904;-54
2022/11/04 06:57:03;;;;;;;;;;;;;;;;;;5086786;28;19911;-55
2022/11/04 06:59:29;;;;;;;;;;;;;;;;;;5084893;28;19911;-51
2022/11/04 07:01:55;;;;;;;;;;;;;;;;;;5071318;28;20326;-53
2022/11/04 07:04:21;;;;;;;;;;;;;;;;;;5068718;28;19989;-54
2022/11/04 07:06:48;;;;;;;;;;;;;;;;;;5069893;28;19912;-54
2022/11/04 07:09:14;;;;;;;;;;;;;;;;;;5095726;28;20378;-54
2022/11/04 07:11:40;;;;;;;;;;;;;;;;;;5109780;28;19904;-55
2022/11/04 07:14:07;;;;;;;;;;;;;;;;;;5088188;28;19947;-55
2022/11/04 07:16:33;;;;;;;;;;;;;;;;;;5069974;28;20016;-54
2022/11/04 07:18:59;;;;;;;;;;;;;;;;;;5069645;28;20411;-52
2022/11/04 07:21:25;;;;;;;;;;;;;;;;;;5069190;28;19905;-55
2022/11/04 07:23:51;;;;;;;;;;;;;;;;;;5069549;28;19969;-40
2022/11/04 07:26:17;;;;;;;;;;;;;;;;;;5071603;28;19908;-40
2022/11/04 07:28:43;;;;;;;;;;;;;;;;;;5080831;28;19912;-40
2022/11/04 07:31:09;;;;;;;;;;;;;;;;;;5086474;28;20034;-40
2022/11/04 07:33:35;;;;;;;;;;;;;;;;;;5074770;28;19963;-40
2022/11/04 07:36:01;;;;;;;;;;;;;;;;;;5074306;28;19958;-40
2022/11/04 07:38:27;;;;;;;;;;;;;;;;;;5079782;28;20375;-40
2022/11/04 07:40:53;;;;;;;;;;;;;;;;;;5078555;28;19916;-40
2022/11/04 07:43:19;;;;;;;;;;;;;;;;;;5072576;28;20016;-40
2022/11/04 07:45:44;;;;;;;;;;;;;;;;;;5076189;28;19965;-40
2022/11/04 07:48:11;;;;;;;;;;;;;;;;;;5085284;28;19904;-40
2022/11/04 07:50:37;;;;;;;;;;;;;;;;;;5081802;28;19935;-40
2022/11/04 07:53:03;;;;;;;;;;;;;;;;;;5085261;28;21743;-40
2022/11/04 07:55:29;;;;;;;;;;;;;;;;;;5062749;28;20367;-40
2022/11/04 07:57:55;;;;;;;;;;;;;;;;;;5065089;28;20282;-40
2022/11/04 08:00:21;;;;;;;;;;;;;;;;;;5071333;28;19920;-40
2022/11/04 08:02:47;;;;;;;;;;;;;;;;;;5061189;28;19915;-40
2022/11/04 08:05:13;;;;;;;;;;;;;;;;;;5064195;28;19916;-40
2022/11/04 08:07:39;;;;;;;;;;;;;;;;;;5074874;28;20569;-40
2022/11/04 08:10:05;;;;;;;;;;;;;;;;;;5084560;28;19977;-40
2022/11/04 08:12:31;;;;;;;;;;;;;;;;;;5086279;28;19904;-40
2022/11/04 08:14:57;;;;;;;;;;;;;;;;;;5087947;28;19994;-40
2022/11/04 08:17:23;;;;;;;;;;;;;;;;;;5074082;28;19912;-40
2022/11/04 08:19:49;;;;;;;;;;;;;;;;;;5072099;28;19982;-40
2022/11/04 08:22:15;;;;;;;;;;;;;;;;;;5072401;28;19915;-40
2022/11/04 08:24:41;;;;;;;;;;;;;;;;;;5075619;28;20003;-40
2022/11/04 08:27:07;;;;;;;;;;;;;;;;;;5084594;28;19937;-40
2022/11/04 08:29:33;;;;;;;;;;;;;;;;;;5080363;28;19982;-40
2022/11/04 08:31:59;;;;;;;;;;;;;;;;;;5082981;28;19930;-39
2022/11/04 08:34:25;;;;;;;;;;;;;;;;;;5073201;28;19951;-40
2022/11/04 08:36:52;;;;;;;;;;;;;;;;;;5071389;28;19916;-40
2022/11/04 08:39:18;;;;;;;;;;;;;;;;;;5076872;28;20544;-40
2022/11/04 08:41:44;;;;;;;;;;;;;;;;;;5076456;28;19916;-40
2022/11/04 08:44:10;;;;;;;;;;;;;;;;;;5070435;28;19916;-40
2022/11/04 08:46:36;;;;;;;;;;;;;;;;;;5071205;28;19912;-40
2022/11/04 08:49:03;;;;;;;;;;;;;;;;;;5069695;28;19919;-40
2022/11/04 08:51:29;;;;;;;;;;;;;;;;;;5081768;28;20052;-40
2022/11/04 08:53:55;;;;;;;;;;;;;;;;;;5085139;28;20422;-40
2022/11/04 08:56:21;;;;;;;;;;;;;;;;;;5082791;28;19904;-40
2022/11/04 08:58:48;;;;;;;;;;;;;;;;;;5086555;28;19912;-40
2022/11/04 09:01:13;;;;;;;;;;;;;;;;;;5075825;28;19920;-40
2022/11/04 09:03:39;;;;;;;;;;;;;;;;;;5085675;28;19912;-40
2022/11/04 09:06:05;;;;;;;;;;;;;;;;;;5088017;28;19908;-40
2022/11/04 09:08:31;;;;;;;;;;;;;;;;;;5084937;28;20204;-39
2022/11/04 09:10:57;;;;;;;;;;;;;;;;;;5072605;28;20076;-40
2022/11/04 09:13:23;;;;;;;;;;;;;;;;;;5082834;28;19908;-40
2022/11/04 09:15:49;;;;;;;;;;;;;;;;;;5083147;28;19918;-40
2022/11/04 09:18:15;;;;;;;;;;;;;;;;;;5078863;28;19912;-40
2022/11/04 09:20:41;;;;;;;;;;;;;;;;;;5072335;28;19920;-40
2022/11/04 09:23:07;;;;;;;;;;;;;;;;;;5068851;28;19908;-40
2022/11/04 09:25:33;;;;;;;;;;;;;;;;;;5079705;28;20346;-40
2022/11/04 09:27:59;;;;;;;;;;;;;;;;;;5088997;28;20011;-40
2022/11/04 09:30:25;;;;;;;;;;;;;;;;;;5089045;28;19962;-39
2022/11/04 09:32:51;;;;;;;;;;;;;;;;;;5087503;28;19911;-40
2022/11/04 09:35:17;;;;;;;;;;;;;;;;;;5075681;28;19954;-40
2022/11/04 09:37:43;;;;;;;;;;;;;;;;;;5083501;28;19942;-40
2022/11/04 09:40:09;;;;;;;;;;;;;;;;;;5084400;28;20437;-40
2022/11/04 09:42:35;;;;;;;;;;;;;;;;;;5088193;28;20035;-40
2022/11/04 09:45:01;;;;;;;;;;;;;;;;;;5070426;28;19909;-40
2022/11/04 09:47:27;;;;;;;;;;;;;;;;;;5069008;28;20023;-40
2022/11/04 09:49:54;;;;;;;;;;;;;;;;;;5068310;28;20292;-40
2022/11/04 09:52:20;;;;;;;;;;;;;;;;;;5084659;28;20587;-40
2022/11/04 09:54:45;;;;;;;;;;;;;;;;;;5088722;28;20002;-40
2022/11/04 09:57:11;;;;;;;;;;;;;;;;;;5088497;28;20411;-40
2022/11/04 09:59:37;;;;;;;;;;;;;;;;;;5083171;28;19919;-40
2022/11/04 10:02:05;;;;;;;;;;;;;;;;;;5081774;28;19908;-40
2022/11/04 10:04:31;;;;;;;;;;;;;;;;;;5105671;28;19904;-40
2022/11/04 10:06:57;;;;;;;;;;;;;;;;;;5087057;28;19908;-40
2022/11/04 10:09:23;;;;;;;;;;;;;;;;;;5087119;28;19965;-40
2022/11/04 10:11:49;;;;;;;;;;;;;;;;;;5080681;28;19935;-40
2022/11/04 10:14:15;;;;;;;;;;;;;;;;;;5083629;28;19908;-40
2022/11/04 10:16:40;;;;;;;;;;;;;;;;;;5086569;28;19953;-39
2022/11/04 10:19:06;;;;;;;;;;;;;;;;;;5074147;28;19912;-40
2022/11/04 10:21:32;;;;;;;;;;;;;;;;;;5085633;28;20007;-40
2022/11/04 10:23:58;;;;;;;;;;;;;;;;;;5095873;28;19962;-40
2022/11/04 10:26:24;;;;;;;;;;;;;;;;;;5087968;28;19914;-40
2022/11/04 10:28:50;;;;;;;;;;;;;;;;;;5081094;28;19935;-40
2022/11/04 10:31:16;;;;;;;;;;;;;;;;;;5075946;28;19908;-40
2022/11/04 10:33:42;;;;;;;;;;;;;;;;;;5085496;28;19961;-39
2022/11/04 10:36:08;;;;;;;;;;;;;;;;;;5070660;28;20065;-39
2022/11/04 10:38:34;;;;;;;;;;;;;;;;;;5071001;28;19912;-39
2022/11/04 10:41:00;;;;;;;;;;;;;;;;;;5089416;28;19923;-40
2022/11/04 10:43:26;;;;;;;;;;;;;;;;;;5087192;28;19916;-40
2022/11/04 10:45:51;;;;;;;;;;;;;;;;;;5074986;28;19919;-40
2022/11/04 10:48:17;;;;;;;;;;;;;;;;;;5096189;28;19926;-40
2022/11/04 10:50:43;;;;;;;;;;;;;;;;;;5083554;28;19914;-40
2022/11/04 10:53:09;;;;;;;;;;;;;;;;;;5069958;28;20015;-40
2022/11/04 10:55:35;;;;;;;;;;;;;;;;;;5076806;28;19912;-40
2022/11/04 10:58:01;;;;;;;;;;;;;;;;;;5098970;28;19908;-40
2022/11/04 11:00:27;;;;;;;;;;;;;;;;;;5084712;28;20409;-40
2022/11/04 11:02:53;;;;;;;;;;;;;;;;;;5086146;28;19929;-40
2022/11/04 11:05:19;;;;;;;;;;;;;;;;;;5071386;28;20337;-39
2022/11/04 11:07:45;;;;;;;;;;;;;;;;;;5075222;28;19919;-40
2022/11/04 11:10:12;;;;;;;;;;;;;;;;;;5070328;28;20335;-40
2022/11/04 11:12:45;;;;;;;;;;;;;;;;;;5069809;28;19919;-40
2022/11/04 11:15:12;;;;;;;;;;;;;;;;;;5086014;28;19904;-40
2022/11/04 11:17:38;;;;;;;;;;;;;;;;;;5086385;28;19916;-40
2022/11/04 11:20:07;;;;;;;;;;;;;;;;;;5079570;28;19922;-40
2022/11/04 11:22:33;;;;;;;;;;;;;;;;;;5090789;28;20371;-40
2022/11/04 11:24:59;;;;;;;;;;;;;;;;;;5073186;28;19919;-40
2022/11/04 11:27:25;;;;;;;;;;;;;;;;;;5076875;28;19920;-40
2022/11/04 11:29:55;;;;;;;;;;;;;;;;;;5088630;28;19916;-40
2022/11/04 11:32:21;;;;;;;;;;;;;;;;;;5085292;28;20310;-40
2022/11/04 11:34:47;;;;;;;;;;;;;;;;;;5069494;28;19943;-40
2022/11/04 11:37:13;;;;;;;;;;;;;;;;;;5073302;28;19915;-40
2022/11/04 11:39:39;;;;;;;;;;;;;;;;;;5081533;28;19957;-40
2022/11/04 11:42:05;;;;;;;;;;;;;;;;;;5082247;28;19912;-40
2022/11/04 11:44:32;;;;;;;;;;;;;;;;;;5095536;28;19976;-40
2022/11/04 11:47:00;;;;;;;;;;;;;;;;;;5089407;28;20618;-40
2022/11/04 11:49:27;;;;;;;;;;;;;;;;;;5071537;28;19912;-40
2022/11/04 11:51:53;;;;;;;;;;;;;;;;;;5075454;28;19953;-40
2022/11/04 11:54:21;;;;;;;;;;;;;;;;;;5073637;28;20005;-40
2022/11/04 11:56:47;;;;;;;;;;;;;;;;;;5070010;28;19927;-40
2022/11/04 11:59:14;;;;;;;;;;;;;;;;;;5085248;28;20274;-40
2022/11/04 12:01:41;;;;;;;;;;;;;;;;;;5074805;28;19912;-40
2022/11/04 12:04:07;;;;;;;;;;;;;;;;;;5071968;28;19912;-40
2022/11/04 12:06:33;;;;;;;;;;;;;;;;;;5072225;28;19926;-40
2022/11/04 12:08:59;;;;;;;;;;;;;;;;;;5078779;28;19908;-40
2022/11/04 12:11:25;;;;;;;;;;;;;;;;;;5089747;28;19908;-40
2022/11/04 12:13:50;;;;;;;;;;;;;;;;;;5088652;28;20028;-40
2022/11/04 12:16:16;;;;;;;;;;;;;;;;;;5089512;28;19912;-40
2022/11/04 12:18:42;;;;;;;;;;;;;;;;;;5074438;28;19915;-40
2022/11/04 12:21:08;;;;;;;;;;;;;;;;;;5069319;28;20599;-40
2022/11/04 12:23:34;;;;;;;;;;;;;;;;;;5069586;28;19908;-40
2022/11/04 12:26:00;;;;;;;;;;;;;;;;;;5086306;28;19915;-40
2022/11/04 12:28:27;;;;;;;;;;;;;;;;;;5085346;28;19961;-40
2022/11/04 12:30:53;;;;;;;;;;;;;;;;;;5087993;28;19908;-40
2022/11/04 12:33:19;;;;;;;;;;;;;;;;;;5076956;28;19915;-40
2022/11/04 12:35:45;;;;;;;;;;;;;;;;;;5079628;28;19998;-40
2022/11/04 12:38:11;;;;;;;;;;;;;;;;;;5079426;28;19971;-40
2022/11/04 12:40:37;;;;;;;;;;;;;;;;;;5072203;28;19916;-40
2022/11/04 12:43:03;;;;;;;;;;;;;;;;;;5083019;28;19912;-40
2022/11/04 12:45:29;;;;;;;;;;;;;;;;;;5078874;28;19999;-40
2022/11/04 12:47:55;;;;;;;;;;;;;;;;;;5070919;28;20030;-40
2022/11/04 12:50:21;;;;;;;;;;;;;;;;;;5084048;28;19911;-40
2022/11/04 12:52:47;;;;;;;;;;;;;;;;;;5087778;28;19912;-40
2022/11/04 12:55:13;;;;;;;;;;;;;;;;;;5089371;28;19956;-40
2022/11/04 12:57:39;;;;;;;;;;;;;;;;;;5088278;28;19907;-41
2022/11/04 13:00:05;;;;;;;;;;;;;;;;;;5076677;28;20040;-40
2022/11/04 13:02:31;;;;;;;;;;;;;;;;;;5088298;28;19990;-40
2022/11/04 13:04:58;;;;;;;;;;;;;;;;;;5080350;28;19999;-40
2022/11/04 13:07:23;;;;;;;;;;;;;;;;;;5067634;28;19940;-40
2022/11/04 13:09:49;;;;;;;;;;;;;;;;;;5068081;28;19955;-40
2022/11/04 13:12:16;;;;;;;;;;;;;;;;;;5075869;28;20362;-40
2022/11/04 13:14:42;;;;;;;;;;;;;;;;;;5081321;28;19953;-39
2022/11/04 13:17:08;;;;;;;;;;;;;;;;;;5089334;28;19907;-40
2022/11/04 13:19:34;;;;;;;;;;;;;;;;;;5081844;28;19923;-40
2022/11/04 13:22:00;;;;;;;;;;;;;;;;;;5078298;28;19916;-40
2022/11/04 13:24:29;;;;;;;;;;;;;;;;;;5076487;28;20626;-40
2022/11/04 13:26:55;;;;;;;;;;;;;;;;;;5079184;28;19912;-40
2022/11/04 13:29:21;;;;;;;;;;;;;;;;;;5074879;28;19904;-40
2022/11/04 13:31:47;;;;;;;;;;;;;;;;;;5078363;28;19920;-40
2022/11/04 13:34:13;;;;;;;;;;;;;;;;;;5078460;28;20403;-40
2022/11/04 13:36:39;;;;;;;;;;;;;;;;;;5078868;28;19961;-40
2022/11/04 13:39:05;;;;;;;;;;;;;;;;;;5072740;28;19984;-40
2022/11/04 13:41:31;;;;;;;;;;;;;;;;;;5076627;28;19920;-40
2022/11/04 13:43:56;;;;;;;;;;;;;;;;;;5075083;28;20011;-40
2022/11/04 13:46:22;;;;;;;;;;;;;;;;;;5076605;28;19995;-40
2022/11/04 13:48:48;;;;;;;;;;;;;;;;;;5073769;28;19958;-40
2022/11/04 13:51:14;;;;;;;;;;;;;;;;;;5073976;28;19977;-40
2022/11/04 13:53:40;;;;;;;;;;;;;;;;;;5076609;28;19919;-40
2022/11/04 13:56:06;;;;;;;;;;;;;;;;;;5076685;28;19912;-40
2022/11/04 13:58:32;;;;;;;;;;;;;;;;;;5074222;28;19916;-40
2022/11/04 14:00:58;;;;;;;;;;;;;;;;;;5073643;28;19939;-40
2022/11/04 14:03:24;;;;;;;;;;;;;;;;;;5073236;28;20296;-40
2022/11/04 14:05:50;;;;;;;;;;;;;;;;;;5073122;28;19911;-40
2022/11/04 14:08:16;;;;;;;;;;;;;;;;;;5072336;28;20322;-40
2022/11/04 14:10:43;;;;;;;;;;;;;;;;;;5074648;28;19929;-40
2022/11/04 14:13:09;;;;;;;;;;;;;;;;;;5073059;28;19919;-40
2022/11/04 14:15:35;;;;;;;;;;;;;;;;;;5073586;28;19942;-40
2022/11/04 14:18:02;;;;;;;;;;;;;;;;;;5071274;28;19919;-40
2022/11/04 14:20:30;;;;;;;;;;;;;;;;;;5073488;28;19957;-40
2022/11/04 14:22:56;;;;;;;;;;;;;;;;;;5073435;28;19975;-40
2022/11/04 14:25:22;;;;;;;;;;;;;;;;;;5072883;28;19943;-40
2022/11/04 14:27:48;;;;;;;;;;;;;;;;;;5074467;28;20354;-40
2022/11/04 14:30:13;;;;;;;;;;;;;;;;;;5072630;28;19904;-40
2022/11/04 14:32:39;;;;;;;;;;;;;;;;;;5074693;28;19917;-40
2022/11/04 14:35:05;;;;;;;;;;;;;;;;;;5073869;28;20436;-40
2022/11/04 14:37:32;;;;;;;;;;;;;;;;;;5073472;28;19912;-40
2022/11/04 14:39:58;;;;;;;;;;;;;;;;;;5069655;28;19920;-40
2022/11/04 14:42:24;;;;;;;;;;;;;;;;;;5072919;28;19978;-40
2022/11/04 14:44:50;;;;;;;;;;;;;;;;;;5057844;28;19907;-40
2022/11/04 14:47:16;;;;;;;;;;;;;;;;;;5078867;28;20275;-40
2022/11/04 14:49:43;;;;;;;;;;;;;;;;;;5079605;28;20003;-40
2022/11/04 14:52:09;;;;;;;;;;;;;;;;;;5082720;28;19912;-40
2022/11/04 14:54:35;;;;;;;;;;;;;;;;;;5079783;28;19920;-41
2022/11/04 14:57:00;;;;;;;;;;;;;;;;;;5083645;28;19923;-41
2022/11/04 14:59:27;;;;;;;;;;;;;;;;;;5083804;28;19912;-41
2022/11/04 15:01:53;;;;;;;;;;;;;;;;;;5090440;28;20435;-41
2022/11/04 15:04:20;;;;;;;;;;;;;;;;;;5090898;28;19999;-41
2022/11/04 15:06:46;;;;;;;;;;;;;;;;;;5090816;28;19961;-41
2022/11/04 15:09:12;;;;;;;;;;;;;;;;;;5091464;28;19904;-41
2022/11/04 15:14:22;;;;;;;;;;;;;;;;;;5071713;28;19966;-38
2022/11/04 15:16:48;;;;;;;;;;;;;;;;;;5082007;28;19908;-38
2022/11/04 15:19:14;;;;;;;;;;;;;;;;;;5081407;28;19908;-38
2022/11/04 15:21:40;;;;;;;;;;;;;;;;;;5067282;28;19912;-38
2022/11/04 15:24:06;;;;;;;;;;;;;;;;;;5080983;28;19915;-38
2022/11/04 15:26:32;;;;;;;;;;;;;;;;;;5083590;28;20690;-38
2022/11/04 15:28:59;;;;;;;;;;;;;;;;;;5079518;28;21249;-38
2022/11/04 15:31:26;;;;;;;;;;;;;;;;;;5083928;28;19912;-38
2022/11/04 15:33:52;;;;;;;;;;;;;;;;;;5082034;28;19908;-38
2022/11/04 15:36:18;;;;;;;;;;;;;;;;;;5082494;28;20035;-38
2022/11/04 15:38:44;;;;;;;;;;;;;;;;;;5077900;28;19911;-38
2022/11/04 15:43:54;;;;;;;;;;;;;;;;;;5079443;28;19915;-38
2022/11/04 15:46:20;;;;;;;;;;;;;;;;;;5073218;28;20279;-38
2022/11/04 15:48:46;;;;;;;;;;;;;;;;;;5072774;28;19978;-38
2022/11/04 15:51:12;;;;;;;;;;;;;;;;;;5080509;28;19955;-38
2022/11/04 15:53:38;;;;;;;;;;;;;;;;;;5081922;28;19923;-38
2022/11/04 15:56:04;;;;;;;;;;;;;;;;;;5088272;28;19947;-38
2022/11/04 15:58:30;;;;;;;;;;;;;;;;;;5090397;28;19904;-38
2022/11/04 16:00:56;;;;;;;;;;;;;;;;;;5076424;28;19932;-38
2022/11/04 16:03:23;;;;;;;;;;;;;;;;;;5072903;28;19915;-38
2022/11/04 16:05:49;;;;;;;;;;;;;;;;;;5085067;28;19904;-38
2022/11/04 16:08:15;;;;;;;;;;;;;;;;;;5081382;28;19908;-38
2022/11/04 16:10:41;;;;;;;;;;;;;;;;;;5078505;28;19909;-38
2022/11/04 16:13:06;;;;;;;;;;;;;;;;;;5075257;28;19908;-38
2022/11/04 16:15:32;;;;;;;;;;;;;;;;;;5088216;28;20008;-38
2022/11/04 16:17:58;;;;;;;;;;;;;;;;;;5072780;28;19916;-38
2022/11/04 16:20:25;;;;;;;;;;;;;;;;;;5085467;28;19908;-38
2022/11/04 16:22:51;;;;;;;;;;;;;;;;;;5091095;28;19981;-38
2022/11/04 16:25:17;;;;;;;;;;;;;;;;;;5088206;28;19904;-38
2022/11/04 16:27:43;;;;;;;;;;;;;;;;;;5084045;28;19921;-38
2022/11/04 16:30:09;;;;;;;;;;;;;;;;;;5089217;28;19914;-38
2022/11/04 16:32:35;;;;;;;;;;;;;;;;;;5067433;28;19912;-38
2022/11/04 16:35:01;;;;;;;;;;;;;;;;;;5083280;28;21129;-38
2022/11/04 16:37:28;;;;;;;;;;;;;;;;;;5081322;28;19965;-38
2022/11/04 16:39:54;;;;;;;;;;;;;;;;;;5081812;28;19929;-38
2022/11/04 16:42:22;;;;;;;;;;;;;;;;;;5079661;28;20296;-38
2022/11/04 16:44:48;;;;;;;;;;;;;;;;;;5079727;28;19947;-38
2022/11/04 16:47:14;;;;;;;;;;;;;;;;;;5083044;28;19923;-38
2022/11/04 16:49:40;;;;;;;;;;;;;;;;;;5081637;28;21131;-38
2022/11/04 16:52:06;;;;;;;;;;;;;;;;;;5078063;28;19916;-38
2022/11/04 16:54:32;;;;;;;;;;;;;;;;;;5079674;28;20421;-38
2022/11/04 16:56:59;;;;;;;;;;;;;;;;;;5081687;28;19916;-38
2022/11/04 16:59:25;;;;;;;;;;;;;;;;;;5081783;28;19927;-38
2022/11/04 17:01:51;;;;;;;;;;;;;;;;;;5079139;28;19908;-38
2022/11/04 17:04:17;;;;;;;;;;;;;;;;;;5080849;28;20488;-38
2022/11/04 17:06:45;;;;;;;;;;;;;;;;;;5083494;28;20408;-38
2022/11/04 17:09:11;;;;;;;;;;;;;;;;;;5079918;28;20008;-38
2022/11/04 17:11:36;;;;;;;;;;;;;;;;;;5079823;28;19970;-38
2022/11/04 17:14:02;;;;;;;;;;;;;;;;;;5080984;28;19916;-38
2022/11/04 17:16:29;;;;;;;;;;;;;;;;;;5080819;28;19916;-38
2022/11/04 17:18:55;;;;;;;;;;;;;;;;;;5079745;28;20379;-38
2022/11/04 17:21:20;;;;;;;;;;;;;;;;;;5065882;28;19908;-38
2022/11/04 17:23:46;;;;;;;;;;;;;;;;;;5075211;28;19966;-38
2022/11/04 17:26:13;;;;;;;;;;;;;;;;;;5081036;28;19908;-38
2022/11/04 17:28:39;;;;;;;;;;;;;;;;;;5088236;28;19978;-38
2022/11/04 17:31:06;;;;;;;;;;;;;;;;;;5087723;28;20386;-39
2022/11/04 17:33:32;;;;;;;;;;;;;;;;;;5073239;28;20433;-41
2022/11/04 17:35:58;;;;;;;;;;;;;;;;;;5073713;28;19920;-40
2022/11/04 17:38:24;;;;;;;;;;;;;;;;;;5105600;28;19904;-40
2022/11/04 17:46:40;;;;;;;;;;;;;;;;;;5071662;28;20646;-41
2022/11/04 17:49:07;;;;;;;;;;;;;;;;;;5079524;28;20401;-41
2022/11/04 17:51:33;;;;;;;;;;;;;;;;;;5097920;28;19904;-40
2022/11/04 17:53:59;;;;;;;;;;;;;;;;;;5088153;28;19931;-41
2022/11/04 17:56:24;;;;;;;;;;;;;;;;;;5065618;28;20304;-41
2022/11/04 17:58:50;;;;;;;;;;;;;;;;;;5086617;28;19903;-41
2022/11/04 18:01:16;;;;;;;;;;;;;;;;;;5087939;28;19954;-40
2022/11/04 18:03:42;;;;;;;;;;;;;;;;;;5081436;28;19912;-40
2022/11/04 18:06:09;;;;;;;;;;;;;;;;;;5075753;28;20332;-41
2022/11/04 18:08:35;;;;;;;;;;;;;;;;;;5071698;28;20383;-40
2022/11/04 18:11:01;;;;;;;;;;;;;;;;;;5075046;28;19962;-41
2022/11/04 18:13:27;;;;;;;;;;;;;;;;;;5093691;28;19953;-40
2022/11/04 18:15:53;;;;;;;;;;;;;;;;;;5082623;28;20526;-40
2022/11/04 18:18:19;;;;;;;;;;;;;;;;;;5080360;28;19912;-40
2022/11/04 18:20:45;;;;;;;;;;;;;;;;;;5079609;28;19915;-41
2022/11/04 18:23:12;;;;;;;;;;;;;;;;;;5071917;28;19916;-40
2022/11/04 18:25:39;;;;;;;;;;;;;;;;;;5071265;28;19908;-40
2022/11/04 18:28:05;;;;;;;;;;;;;;;;;;5064355;28;20400;-40
2022/11/04 18:30:31;;;;;;;;;;;;;;;;;;5063005;28;19915;-40
2022/11/04 18:32:57;;;;;;;;;;;;;;;;;;5079033;28;20358;-41
2022/11/04 18:35:23;;;;;;;;;;;;;;;;;;5058908;28;19912;-41
2022/11/04 18:37:49;;;;;;;;;;;;;;;;;;5080772;28;19912;-40
2022/11/04 18:40:15;;;;;;;;;;;;;;;;;;5065889;28;19943;-40
2022/11/04 18:42:41;;;;;;;;;;;;;;;;;;5068192;28;19904;-41
2022/11/04 18:45:07;;;;;;;;;;;;;;;;;;5051045;28;19909;-40
2022/11/04 18:47:33;;;;;;;;;;;;;;;;;;5082621;28;19915;-41
2022/11/04 18:49:59;;;;;;;;;;;;;;;;;;5074528;28;19923;-40
2022/11/04 18:52:25;;;;;;;;;;;;;;;;;;5070431;28;19908;-44
2022/11/04 18:54:52;;;;;;;;;;;;;;;;;;5073832;28;19939;-44
2022/11/04 18:57:18;;;;;;;;;;;;;;;;;;5080202;28;19916;-44
2022/11/04 18:59:43;;;;;;;;;;;;;;;;;;5063465;28;20532;-44
2022/11/04 19:02:09;;;;;;;;;;;;;;;;;;5081390;28;19912;-45
2022/11/04 19:04:35;;;;;;;;;;;;;;;;;;5073409;28;19908;-45
2022/11/04 19:07:03;;;;;;;;;;;;;;;;;;5078199;28;19908;-45
2022/11/04 19:09:29;;;;;;;;;;;;;;;;;;5083639;28;19912;-43
2022/11/04 19:13:16;;;;;;;;;;;;;;;;;;5082793;28;20424;-44
2022/11/04 19:14:40;;;;;;;;;;;;;;;;;;5084280;28;20311;-45
2022/11/04 19:17:06;;;;;;;;;;;;;;;;;;5078484;28;19935;-41
2022/11/04 19:19:32;;;;;;;;;;;;;;;;;;5082061;28;19919;-41
2022/11/04 19:21:58;;;;;;;;;;;;;;;;;;5082362;28;19911;-40
2022/11/04 19:24:24;;;;;;;;;;;;;;;;;;5078783;28;19908;-40
2022/11/04 19:26:50;;;;;;;;;;;;;;;;;;5059128;28;19908;-40
2022/11/04 19:29:16;;;;;;;;;;;;;;;;;;5076429;28;19908;-40
2022/11/04 19:31:42;;;;;;;;;;;;;;;;;;5068181;28;19981;-40
2022/11/04 19:34:08;;;;;;;;;;;;;;;;;;5069730;28;20021;-40
2022/11/04 19:36:36;;;;;;;;;;;;;;;;;;5076061;28;19955;-40
2022/11/04 19:39:02;;;;;;;;;;;;;;;;;;5058357;28;19908;-41
2022/11/04 19:44:12;;;;;;;;;;;;;;;;;;5072413;28;19954;-40
2022/11/04 19:46:38;;;;;;;;;;;;;;;;;;5055239;28;19916;-40
2022/11/04 19:49:04;;;;;;;;;;;;;;;;;;5071796;28;20435;-40
2022/11/04 19:51:30;;;;;;;;;;;;;;;;;;5071285;28;19908;-40
2022/11/04 19:53:55;;;;;;;;;;;;;;;;;;5072577;28;19909;-40
2022/11/04 19:56:21;;;;;;;;;;;;;;;;;;5070451;28;19911;-40
2022/11/04 19:58:47;;;;;;;;;;;;;;;;;;5071199;28;19959;-40
2022/11/04 20:01:13;;;;;;;;;;;;;;;;;;5073069;28;19908;-40
2022/11/04 20:03:39;;;;;;;;;;;;;;;;;;5075854;28;19916;-40
2022/11/04 20:06:05;;;;;;;;;;;;;;;;;;5085328;28;19916;-40
2022/11/04 20:08:31;;;;;;;;;;;;;;;;;;5081385;28;19908;-40
2022/11/04 20:10:57;;;;;;;;;;;;;;;;;;5073268;28;20329;-40
2022/11/04 20:16:07;;;;;;;;;;;;;;;;;;5086759;28;19950;-40
2022/11/04 20:18:33;;;;;;;;;;;;;;;;;;5086542;28;19915;-40
2022/11/04 20:20:59;;;;;;;;;;;;;;;;;;5086651;28;20317;-40
2022/11/04 20:23:25;;;;;;;;;;;;;;;;;;5089175;28;19904;-40
2022/11/04 20:25:51;;;;;;;;;;;;;;;;;;5087661;28;20359;-40
2022/11/04 20:28:17;;;;;;;;;;;;;;;;;;5088460;28;19915;-40
2022/11/04 20:30:43;;;;;;;;;;;;;;;;;;5086578;28;19908;-40
2022/11/04 20:33:09;;;;;;;;;;;;;;;;;;5088218;28;19912;-40
2022/11/04 20:35:35;;;;;;;;;;;;;;;;;;5087901;28;19966;-40
2022/11/04 20:38:01;;;;;;;;;;;;;;;;;;5088213;28;19915;-40
2022/11/04 20:40:27;;;;;;;;;;;;;;;;;;5086379;28;19915;-40
2022/11/04 20:42:53;;;;;;;;;;;;;;;;;;5071818;28;19908;-40
2022/11/04 20:45:20;;;;;;;;;;;;;;;;;;5056180;28;20401;-40
2022/11/04 20:47:46;;;;;;;;;;;;;;;;;;5083117;28;19934;-40
2022/11/04 20:50:11;;;;;;;;;;;;;;;;;;5090041;28;19904;-40
2022/11/04 20:52:37;;;;;;;;;;;;;;;;;;5090792;28;19908;-40
2022/11/04 20:55:03;;;;;;;;;;;;;;;;;;5090395;28;19904;-40
2022/11/04 20:57:29;;;;;;;;;;;;;;;;;;5090794;28;19904;-40
2022/11/04 20:59:55;;;;;;;;;;;;;;;;;;5090656;28;20007;-40
2022/11/04 21:02:23;;;;;;;;;;;;;;;;;;5090642;28;19904;-40
2022/11/04 21:04:49;;;;;;;;;;;;;;;;;;5090679;28;19904;-40
2022/11/04 21:07:16;;;;;;;;;;;;;;;;;;5091096;28;20367;-40
2022/11/04 21:09:42;;;;;;;;;;;;;;;;;;5090525;28;19912;-40
2022/11/04 21:12:08;;;;;;;;;;;;;;;;;;5090356;28;20379;-40
2022/11/04 21:14:34;;;;;;;;;;;;;;;;;;5090561;28;19908;-40
2022/11/04 21:17:00;;;;;;;;;;;;;;;;;;5090411;28;20379;-40
2022/11/04 21:19:26;;;;;;;;;;;;;;;;;;5090203;28;19931;-40
2022/11/04 21:21:52;;;;;;;;;;;;;;;;;;5090325;28;19910;-40
2022/11/04 21:24:18;;;;;;;;;;;;;;;;;;5090706;28;19911;-40
2022/11/04 21:26:44;;;;;;;;;;;;;;;;;;5090894;28;20323;-40
2022/11/04 21:29:10;;;;;;;;;;;;;;;;;;5090199;28;20335;-40
2022/11/04 21:31:36;;;;;;;;;;;;;;;;;;5090117;28;19911;-40
2022/11/04 21:34:02;;;;;;;;;;;;;;;;;;5089860;28;19904;-40
2022/11/04 21:36:28;;;;;;;;;;;;;;;;;;5089968;28;19907;-40
2022/11/04 21:38:54;;;;;;;;;;;;;;;;;;5089747;28;20359;-40
2022/11/04 21:41:21;;;;;;;;;;;;;;;;;;5089787;28;19912;-40
2022/11/04 21:43:47;;;;;;;;;;;;;;;;;;5090499;28;19947;-40
2022/11/04 21:46:13;;;;;;;;;;;;;;;;;;5089885;28;20391;-40
2022/11/04 21:48:39;;;;;;;;;;;;;;;;;;5089505;28;19949;-40
2022/11/04 21:51:05;;;;;;;;;;;;;;;;;;5089636;28;19904;-40
2022/11/04 21:53:31;;;;;;;;;;;;;;;;;;5089751;28;19911;-40